Eden, Utah
Current Conditions -  °F | °C
As of 12:24 PM on Saturday 20 Dec 2014 (Local Time) from KOGD Reporting Station
Light Rain Light Rain  
Wind Chill: 33°   Ceiling: 2100
Heat Index: 38°   Visibility: 5mi
Dew Point: 36°   Wind: 6mph
Humidity: 93%   Direction: 200°SSW
Pressure: 30.09"   Gusts: NA
Location:  41.3°N, 111.81°W
Report Text: KOGD 201924Z 20005KT 5SM -RA BR FEW009 BKN021 OVC025 03/02 A3009 RMK AO2 P0003 T00330022
Loading
Personal Weather Stations






























Interactive Weather Map New forecast layout! Learn more

10-Day Weather Forecast

Advertisements
Track Severe Weather on mobile